Pflugerville's Hourly Summary for Sunday, May 13, 2018
Hour Temp
(f)
RH
(%)
Solar Rad.
(MJ/m2)
Rainfall
(in)
Wind
(mph)
5/13/2018 12:00 AM 75 85 0 0 7.15
5/13/2018 1:00 AM 73 99 0 0 7.07
5/13/2018 2:00 AM 72 100 0 0 6.47
5/13/2018 3:00 AM 72 100 0 0 6.02
5/13/2018 4:00 AM 72 100 0 0 4.79
5/13/2018 5:00 AM 72 100 0 0 4.98
5/13/2018 6:00 AM 72 100 0 0 3.96
5/13/2018 7:00 AM 71 100 0.01 0 2.99
5/13/2018 8:00 AM 72 100 0.12 0 3.43
5/13/2018 9:00 AM 73 100 0.28 0 5.33
5/13/2018 10:00 AM 74 100 0.45 0 6.45
5/13/2018 11:00 AM 76 100 0.94 0 6.86
5/13/2018 12:00 PM 78 100 1.74 0 7.15
5/13/2018 1:00 PM 81 87 2.44 0 6.28
5/13/2018 2:00 PM 83 75 2.72 0 7.76
5/13/2018 3:00 PM 86 60 3.03 0 8.63
5/13/2018 4:00 PM 87 56 2.08 0 8.59
5/13/2018 5:00 PM 87 54 1.07 0 7.95
5/13/2018 6:00 PM 88 54 1.58 0 6.49
5/13/2018 7:00 PM 86 57 0.79 0 5.18
5/13/2018 8:00 PM 85 59 0.33 0 5.13
5/13/2018 9:00 PM 82 62 0.01 0 5.13
5/13/2018 10:00 PM 80 66 0 0 7.74
5/13/2018 11:00 PM 78 71 0 0 8.01
Data Summary 78 82 17.59 0.00 6.23